Time;durP1;ratioP1;P1;durP2;ratioP2;P2;SDS_P1;SDS_P2;PMS_P1;PMS_P2;Temp;Humidity;BMP_temperature;BMP_pressure;BME280_temperature;BME280_humidity;BME280_pressure;Samples;Min_cycle;Max_cycle;Signal;HPM_P1;HPM_P2
2024/02/19 00:35:49;;;;;;;0.80;0.80;;;;;;;7.85;96.90;99429.13;5972389;23;20018;-92
2024/02/19 00:38:18;;;;;;;0.68;0.68;;;;;;;7.94;96.42;99440.22;4959889;28;20087;-91
2024/02/19 00:43:23;;;;;;;0.70;0.70;;;;;;;7.95;95.76;99430.50;5188745;23;20033;-92
2024/02/19 00:53:55;;;;;;;0.63;0.63;;;;;;;8.13;93.80;99433.19;5461693;23;20048;-92
2024/02/19 00:56:24;;;;;;;0.70;0.70;;;;;;;8.06;93.84;99428.41;4970119;28;20019;-92
2024/02/19 00:58:49;;;;;;;0.70;0.70;;;;;;;8.13;93.68;99430.53;4949408;28;20067;-92
2024/02/19 01:01:16;;;;;;;0.70;0.70;;;;;;;8.09;94.22;99425.88;4957043;28;20026;-93
2024/02/19 01:03:44;;;;;;;0.70;0.70;;;;;;;8.05;94.43;99423.91;4937815;28;20103;-93
2024/02/19 01:06:12;;;;;;;0.70;0.70;;;;;;;8.15;93.29;99418.25;4958641;28;20039;-92
2024/02/19 01:08:39;;;;;;;0.70;0.70;;;;;;;8.20;92.65;99436.25;4974565;28;20086;-94
2024/02/19 01:11:05;;;;;;;0.70;0.70;;;;;;;8.15;93.54;99435.09;4958024;28;20082;-92
2024/02/19 01:13:31;;;;;;;0.70;0.70;;;;;;;8.25;92.56;99435.56;5056315;23;20277;-91
2024/02/19 01:18:41;;;;;;;0.70;0.70;;;;;;;8.20;93.37;99417.63;5014629;23;20090;-93
2024/02/19 01:21:07;;;;;;;0.68;0.68;;;;;;;8.18;93.47;99419.28;4977586;28;20042;-93
2024/02/19 01:23:32;;;;;;;0.70;0.70;;;;;;;8.23;93.22;99409.78;4985898;28;20035;-93
2024/02/19 01:25:58;;;;;;;0.60;0.60;;;;;;;8.20;92.90;99427.34;4992888;28;20031;-92
2024/02/19 01:28:24;;;;;;;0.70;0.70;;;;;;;8.21;92.78;99421.19;5082539;23;20043;-93
2024/02/19 01:30:52;;;;;;;0.80;0.80;;;;;;;8.29;93.14;99429.53;5019501;23;20107;-93
2024/02/19 01:38:42;;;;;;;0.70;0.70;;;;;;;8.13;94.16;99431.44;5542179;23;20034;-93
2024/02/19 01:41:08;;;;;;;;;;;;;;;8.15;93.69;99419.16;5509438;23;20075;-93
2024/02/19 01:43:36;;;;;;;0.73;0.73;;;;;;;8.19;93.75;99412.22;4957049;28;19942;-94
2024/02/19 01:46:02;;;;;;;0.70;0.70;;;;;;;8.12;94.08;99421.66;4957854;28;20020;-94
2024/02/19 01:48:28;;;;;;;0.60;0.60;;;;;;;8.19;93.89;99407.84;4938172;29;20023;-94
2024/02/19 01:50:56;;;;;;;;;;;;;;;8.13;93.87;99414.59;4956925;28;20074;-96
2024/02/19 01:53:23;;;;;;;0.60;0.60;;;;;;;8.14;94.10;99419.97;4959773;28;19930;-94
2024/02/19 01:55:49;;;;;;;;;;;;;;;8.18;93.91;99418.38;4954149;28;20048;-94
2024/02/19 01:58:15;;;;;;;0.70;0.70;;;;;;;8.18;93.74;99419.28;4953779;28;19938;-94
2024/02/19 02:00:48;;;;;;;0.70;0.70;;;;;;;8.18;93.54;99410.41;4960306;28;20015;-93
2024/02/19 02:03:19;;;;;;;0.80;0.80;;;;;;;8.26;93.15;99410.78;4953468;28;20039;-94
2024/02/19 02:05:48;;;;;;;0.70;0.70;;;;;;;8.21;93.25;99424.75;4969314;28;20085;-93
2024/02/19 02:35:15;;;;;;;0.70;0.70;;;;;;;8.22;93.49;99421.25;5351618;23;20034;-93
2024/02/19 02:37:40;;;;;;;0.70;0.70;;;;;;;8.27;93.43;99426.81;4991895;28;20030;-93
2024/02/19 02:40:06;;;;;;;0.70;0.70;;;;;;;8.23;93.96;99422.16;4995372;28;20086;-93
2024/02/19 02:45:13;;;;;;;0.80;0.80;;;;;;;8.18;94.42;99435.22;4977266;28;20027;-93
2024/02/19 02:47:38;;;;;;;0.70;0.70;;;;;;;8.19;93.99;99421.13;4990381;28;20024;-94
2024/02/19 02:50:14;;;;;;;0.70;0.70;;;;;;;8.22;94.44;99441.63;4988150;28;20241;-91
2024/02/19 02:52:40;;;;;;;0.70;0.70;;;;;;;8.17;94.20;99432.50;4974504;28;20034;-94
2024/02/19 02:55:06;;;;;;;0.70;0.70;;;;;;;8.19;94.50;99436.13;4974350;28;20058;-92
2024/02/19 02:57:32;;;;;;;0.70;0.70;;;;;;;8.21;94.68;99439.81;4978639;28;20020;-94
2024/02/19 02:59:59;;;;;;;0.70;0.70;;;;;;;8.12;94.55;99431.38;4958360;28;20094;-93
2024/02/19 03:02:27;;;;;;;0.70;0.70;;;;;;;8.16;94.56;99436.91;4961764;28;20023;-93
2024/02/19 03:04:53;;;;;;;0.70;0.70;;;;;;;8.15;94.82;99429.78;4960447;28;20090;-93
2024/02/19 03:07:19;;;;;;;0.75;0.75;;;;;;;8.19;94.81;99438.78;4973186;28;20043;-93
2024/02/19 03:09:45;;;;;;;0.70;0.70;;;;;;;8.19;94.58;99436.13;4979434;28;20020;-93
2024/02/19 03:12:11;;;;;;;0.70;0.70;;;;;;;8.17;95.01;99432.50;4978085;28;20080;-92
2024/02/19 03:14:37;;;;;;;0.70;0.70;;;;;;;8.20;94.80;99433.59;4958328;28;20039;-92
2024/02/19 03:17:04;;;;;;;0.70;0.70;;;;;;;8.17;94.69;99444.03;4993504;28;20158;-92
2024/02/19 03:19:30;;;;;;;0.60;0.60;;;;;;;8.23;94.36;99427.47;4976780;28;20020;-92
2024/02/19 03:21:56;;;;;;;0.70;0.70;;;;;;;8.23;94.61;99428.38;4992401;28;20042;-92
2024/02/19 03:35:10;;;;;;;0.70;0.70;;;;;;;8.26;94.77;99426.75;5893431;23;20042;-94
2024/02/19 04:04:36;;;;;;;0.70;0.70;;;;;;;8.35;94.86;99460.00;5713859;23;20638;-92
2024/02/19 04:07:02;;;;;;;0.70;0.70;;;;;;;8.34;94.90;99462.59;5269290;23;20028;-92
2024/02/19 04:09:28;;;;;;;0.70;0.70;;;;;;;8.33;94.73;99453.69;5463447;23;20034;-92
2024/02/19 04:11:54;;;;;;;0.60;0.60;;;;;;;8.34;95.13;99454.63;4964074;28;20031;-94
2024/02/19 04:16:56;;;;;;;0.70;0.70;;;;;;;8.34;95.12;99451.97;5856957;23;20038;-94
2024/02/19 04:19:24;;;;;;;0.65;0.65;;;;;;;8.30;95.26;99463.28;5009359;23;20102;-95
2024/02/19 04:35:18;;;;;;;0.65;0.65;;;;;;;8.44;94.17;99460.50;5352580;23;20062;-95
2024/02/19 04:37:44;;;;;;;0.68;0.68;;;;;;;8.40;94.30;99462.94;4990817;28;20031;-94
2024/02/19 04:40:12;;;;;;;0.70;0.70;;;;;;;8.51;93.55;99452.81;4975505;28;20047;-94
2024/02/19 04:42:38;;;;;;;0.60;0.60;;;;;;;8.53;93.90;99453.78;4975006;28;20094;-94
2024/02/19 04:45:05;;;;;;;0.70;0.70;;;;;;;8.51;93.57;99458.13;4960518;28;20038;-94
2024/02/19 04:47:34;;;;;;;0.70;0.70;;;;;;;8.55;93.42;99457.44;4942961;28;20030;-95
2024/02/19 04:52:42;;;;;;;0.70;0.70;;;;;;;8.51;93.43;99458.13;5170320;23;20047;-95
2024/02/19 04:55:08;;;;;;;0.70;0.70;;;;;;;8.43;93.54;99464.00;5009883;28;20030;-95
2024/02/19 04:57:34;;;;;;;0.70;0.70;;;;;;;8.45;93.36;99459.66;4985967;28;20022;-95
2024/02/19 05:00:00;;;;;;;0.70;0.70;;;;;;;8.51;93.48;99460.78;4984345;28;20037;-95
2024/02/19 05:02:26;;;;;;;0.70;0.70;;;;;;;8.51;93.44;99453.72;4983034;28;20288;-94
2024/02/19 05:04:52;;;;;;;0.70;0.70;;;;;;;8.48;93.30;99459.81;4998943;28;20094;-95
2024/02/19 05:07:17;;;;;;;0.60;0.60;;;;;;;8.51;93.16;99460.78;4966638;28;20190;-95
2024/02/19 05:09:44;;;;;;;0.80;0.80;;;;;;;8.52;92.88;99459.94;4980578;28;20027;-93
2024/02/19 05:12:10;;;;;;;0.70;0.70;;;;;;;8.49;93.20;99460.72;4983585;28;20031;-94
2024/02/19 05:14:35;;;;;;;0.68;0.68;;;;;;;8.48;92.72;99456.25;4972591;28;20026;-94
2024/02/19 05:17:01;;;;;;;0.70;0.70;;;;;;;8.52;92.34;99451.97;4994026;28;20101;-94
2024/02/19 05:19:26;;;;;;;0.70;0.70;;;;;;;8.53;92.48;99467.06;4969089;28;20467;-95
2024/02/19 05:21:52;;;;;;;0.70;0.70;;;;;;;8.50;92.58;99464.28;4982314;28;20086;-94
2024/02/19 05:24:18;;;;;;;0.60;0.60;;;;;;;8.52;92.58;99473.25;4984061;28;20083;-95
2024/02/19 05:26:44;;;;;;;0.70;0.70;;;;;;;8.47;92.43;99465.94;4987807;28;20752;-96
2024/02/19 05:29:11;;;;;;;0.70;0.70;;;;;;;8.53;92.31;99480.38;4982663;28;20007;-94
2024/02/19 05:31:38;;;;;;;0.70;0.70;;;;;;;8.52;92.96;99491.88;4974311;28;20627;-94
2024/02/19 05:34:10;;;;;;;0.70;0.70;;;;;;;8.46;92.33;99487.16;4975399;28;20019;-94
2024/02/19 05:36:36;;;;;;;0.70;0.70;;;;;;;8.45;92.09;99490.66;4997167;28;20035;-95
2024/02/19 05:39:10;;;;;;;0.70;0.70;;;;;;;8.50;90.67;99490.88;5007625;28;20031;-93
2024/02/19 05:41:37;;;;;;;0.60;0.60;;;;;;;8.55;90.52;99500.00;4998823;28;20051;-94
2024/02/19 05:44:02;;;;;;;0.60;0.60;;;;;;;8.45;90.32;99499.53;4991643;28;20035;-94
2024/02/19 05:46:31;;;;;;;0.60;0.60;;;;;;;8.46;90.73;99501.34;4974421;28;20035;-95
2024/02/19 05:48:59;;;;;;;0.70;0.70;;;;;;;8.44;91.21;99507.47;4993071;28;20026;-94
2024/02/19 05:51:28;;;;;;;0.70;0.70;;;;;;;8.45;91.02;99509.28;4991717;28;20164;-95
2024/02/19 05:53:55;;;;;;;0.70;0.70;;;;;;;8.46;90.85;99509.34;4988722;28;20043;-94
2024/02/19 05:56:21;;;;;;;0.80;0.80;;;;;;;8.37;91.01;99514.19;4974994;28;20035;-95
2024/02/19 05:58:49;;;;;;;0.70;0.70;;;;;;;8.32;91.37;99513.03;4992663;28;20057;-95
2024/02/19 06:01:16;;;;;;;0.60;0.60;;;;;;;8.38;91.15;99520.41;5017972;28;20027;-94
2024/02/19 06:03:42;;;;;;;0.70;0.70;;;;;;;8.37;91.39;99521.25;4996169;28;20054;-94
2024/02/19 06:06:07;;;;;;;0.60;0.60;;;;;;;8.38;90.99;99534.63;4978520;28;20039;-94
2024/02/19 06:08:33;;;;;;;0.70;0.70;;;;;;;8.44;91.19;99526.06;4971796;28;20069;-94
2024/02/19 06:11:03;;;;;;;0.70;0.70;;;;;;;8.41;90.85;99528.56;4978805;28;20033;-94
2024/02/19 06:13:29;;;;;;;0.70;0.70;;;;;;;8.34;90.99;99534.38;5001081;28;20034;-93
2024/02/19 06:15:55;;;;;;;0.70;0.70;;;;;;;8.33;91.10;99538.75;4963312;28;20031;-93
2024/02/19 06:18:20;;;;;;;0.70;0.70;;;;;;;8.28;91.30;99536.72;4961786;28;20035;-95
2024/02/19 06:20:47;;;;;;;0.70;0.70;;;;;;;8.23;91.47;99539.13;4985559;28;20289;-93
2024/02/19 06:23:13;;;;;;;0.70;0.70;;;;;;;8.27;91.33;99550.84;4991873;28;20042;-96
2024/02/19 06:25:38;;;;;;;0.60;0.60;;;;;;;8.22;91.73;99553.25;5004184;28;20062;-94
2024/02/19 06:28:06;;;;;;;0.60;0.60;;;;;;;8.25;91.10;99548.13;4980252;28;20103;-95
2024/02/19 06:30:35;;;;;;;0.70;0.70;;;;;;;8.15;91.24;99551.13;4980872;28;20031;-95
2024/02/19 06:33:00;;;;;;;0.70;0.70;;;;;;;8.20;91.22;99555.84;4985044;28;20038;-93
2024/02/19 06:35:26;;;;;;;0.70;0.70;;;;;;;8.20;91.29;99561.16;4988764;28;20026;-94
2024/02/19 06:37:51;;;;;;;0.60;0.60;;;;;;;8.33;90.26;99552.06;4982958;28;20038;-93
2024/02/19 06:40:17;;;;;;;0.60;0.60;;;;;;;8.28;90.77;99552.66;4992179;28;20098;-94
2024/02/19 06:42:43;;;;;;;0.68;0.68;;;;;;;8.21;90.52;99564.75;4995596;28;20038;-93
2024/02/19 06:45:08;;;;;;;0.70;0.70;;;;;;;8.30;89.66;99567.88;4981760;28;20029;-93
2024/02/19 06:47:34;;;;;;;0.70;0.70;;;;;;;8.20;89.86;99563.81;4979556;28;20027;-93
2024/02/19 06:49:59;;;;;;;0.70;0.70;;;;;;;8.25;89.53;99569.38;4969128;28;20055;-93
2024/02/19 06:52:24;;;;;;;0.70;0.70;;;;;;;8.16;89.95;99564.50;4962378;28;20027;-93
2024/02/19 06:54:51;;;;;;;0.70;0.70;;;;;;;8.13;89.72;99569.63;4975403;28;20047;-92
2024/02/19 06:57:16;;;;;;;0.70;0.70;;;;;;;8.20;88.87;99565.56;4964170;28;20078;-93
2024/02/19 06:59:42;;;;;;;0.70;0.70;;;;;;;8.13;89.68;99577.63;4977348;28;20105;-94
2024/02/19 07:02:08;;;;;;;0.70;0.70;;;;;;;8.05;89.33;99570.06;4961643;28;20031;-94
2024/02/19 07:04:36;;;;;;;0.60;0.60;;;;;;;8.06;88.93;99574.56;4974447;28;20069;-93
2024/02/19 07:07:08;;;;;;;0.70;0.70;;;;;;;8.12;88.86;99573.13;4992921;28;20041;-92
2024/02/19 07:09:35;;;;;;;0.70;0.70;;;;;;;8.10;88.51;99579.22;4973115;28;20066;-94
2024/02/19 07:12:00;;;;;;;0.80;0.80;;;;;;;8.15;88.52;99570.66;4977031;28;20081;-94
2024/02/19 07:14:25;;;;;;;0.80;0.80;;;;;;;8.16;87.67;99571.56;4986180;28;20046;-92
2024/02/19 07:16:51;;;;;;;0.70;0.70;;;;;;;8.17;87.75;99573.38;4973258;28;20081;-93
2024/02/19 07:19:16;;;;;;;0.70;0.70;;;;;;;8.15;87.25;99578.63;4984103;28;20466;-93
2024/02/19 07:21:43;;;;;;;0.70;0.70;;;;;;;8.29;86.61;99579.34;4970829;28;20039;-93
2024/02/19 07:24:08;;;;;;;0.70;0.70;;;;;;;8.36;85.38;99572.59;4986110;28;20027;-93
2024/02/19 07:26:34;;;;;;;0.70;0.70;;;;;;;8.32;84.74;99586.56;4969698;28;20027;-92
2024/02/19 07:28:59;;;;;;;0.70;0.70;;;;;;;8.31;84.65;99595.38;4977910;28;20052;-92
2024/02/19 07:31:25;;;;;;;0.70;0.70;;;;;;;8.30;84.90;99594.47;4982310;28;20045;-93
2024/02/19 07:33:53;;;;;;;0.80;0.80;;;;;;;8.32;84.64;99597.19;4982437;28;20222;-93
2024/02/19 07:36:19;;;;;;;0.80;0.80;;;;;;;8.27;84.74;99615.56;4983856;28;20053;-93
2024/02/19 07:38:44;;;;;;;0.70;0.70;;;;;;;8.26;84.77;99612.81;4939561;29;20110;-93
2024/02/19 07:41:17;;;;;;;0.80;0.80;;;;;;;8.32;83.88;99608.72;4994723;28;20053;-92
2024/02/19 07:43:43;;;;;;;0.70;0.70;;;;;;;8.38;83.84;99611.72;4955013;28;20557;-92
2024/02/19 07:46:09;;;;;;;0.70;0.70;;;;;;;8.35;84.10;99610.66;4971862;28;20027;-92
2024/02/19 07:48:35;;;;;;;0.70;0.70;;;;;;;8.26;84.28;99621.72;4964908;28;20050;-93
2024/02/19 07:51:00;;;;;;;0.70;0.70;;;;;;;8.33;83.76;99620.28;4964235;28;20031;-91
2024/02/19 07:53:25;;;;;;;0.70;0.70;;;;;;;8.25;84.15;99630.53;4996731;28;20564;-92
2024/02/19 07:56:05;;;;;;;0.70;0.70;;;;;;;8.27;83.88;99630.59;4981898;28;20093;-91
2024/02/19 07:58:31;;;;;;;0.70;0.70;;;;;;;8.33;83.60;99639.78;4961590;28;20085;-92
2024/02/19 08:00:56;;;;;;;0.80;0.80;;;;;;;8.36;83.77;99626.72;4964958;28;20035;-92
2024/02/19 08:03:22;;;;;;;0.70;0.70;;;;;;;8.31;84.01;99641.47;4970555;28;20392;-91
2024/02/19 08:05:48;;;;;;;0.70;0.70;;;;;;;8.41;83.85;99648.22;4968009;28;20043;-92
2024/02/19 08:08:15;;;;;;;0.70;0.70;;;;;;;8.38;84.02;99646.31;4981409;28;20038;-93
2024/02/19 08:10:40;;;;;;;0.80;0.80;;;;;;;8.41;83.70;99651.78;4963490;28;20058;-92
2024/02/19 08:13:08;;;;;;;0.70;0.70;;;;;;;8.40;83.70;99663.28;4973743;28;20043;-91
2024/02/19 08:15:33;;;;;;;0.80;0.80;;;;;;;8.40;83.69;99652.63;4976139;28;20062;-92
2024/02/19 08:17:59;;;;;;;0.70;0.70;;;;;;;8.30;83.94;99660.94;4974837;28;20054;-91
2024/02/19 08:20:26;;;;;;;0.70;0.70;;;;;;;8.31;83.44;99665.41;4978704;28;20035;-92
2024/02/19 08:22:52;;;;;;;0.70;0.70;;;;;;;8.20;83.28;99675.47;4957517;28;20063;-92
2024/02/19 08:25:18;;;;;;;0.75;0.75;;;;;;;8.14;83.52;99676.88;4964346;28;20055;-90
2024/02/19 08:27:43;;;;;;;0.70;0.70;;;;;;;8.11;84.12;99679.38;4996492;28;20089;-91
2024/02/19 08:30:09;;;;;;;0.70;0.70;;;;;;;8.08;84.82;99682.78;4967122;28;20050;-92
2024/02/19 08:32:34;;;;;;;0.70;0.70;;;;;;;8.18;83.55;99686.84;4976035;28;20041;-92
2024/02/19 08:35:00;;;;;;;0.73;0.73;;;;;;;8.27;83.89;99692.66;4983629;28;20054;-91
2024/02/19 08:37:25;;;;;;;0.70;0.70;;;;;;;8.16;83.56;99693.84;4981564;28;20031;-91
2024/02/19 08:39:52;;;;;;;0.70;0.70;;;;;;;8.27;83.37;99691.75;4976314;28;20026;-92
2024/02/19 08:42:17;;;;;;;0.70;0.70;;;;;;;8.30;82.91;99698.16;4976995;28;20028;-92
2024/02/19 08:44:43;;;;;;;0.70;0.70;;;;;;;8.31;83.20;99696.41;5001499;28;20033;-91
2024/02/19 08:47:09;;;;;;;0.70;0.70;;;;;;;8.30;82.95;99698.16;4988378;28;20046;-92
2024/02/19 08:49:36;;;;;;;0.70;0.70;;;;;;;8.35;82.22;99701.06;4983087;28;20039;-92
2024/02/19 08:52:04;;;;;;;0.70;0.70;;;;;;;8.26;82.18;99698.81;4983880;28;20057;-94
2024/02/19 08:54:30;;;;;;;0.70;0.70;;;;;;;8.16;82.33;99713.34;4964451;28;20030;-91
2024/02/19 08:56:55;;;;;;;0.70;0.70;;;;;;;8.19;82.10;99707.28;4977356;28;20038;-92
2024/02/19 08:59:20;;;;;;;0.70;0.70;;;;;;;8.20;81.73;99706.47;4980058;28;20055;-92
2024/02/19 09:01:46;;;;;;;0.70;0.70;;;;;;;8.23;81.33;99709.28;4991665;28;20031;-91
2024/02/19 09:04:11;;;;;;;0.70;0.70;;;;;;;8.31;80.96;99707.03;4977966;28;20058;-92
2024/02/19 09:06:37;;;;;;;0.80;0.80;;;;;;;8.28;80.60;99701.53;4967002;28;20070;-92
2024/02/19 09:09:03;;;;;;;0.70;0.70;;;;;;;8.28;80.60;99704.19;4980168;28;20066;-93
2024/02/19 09:11:29;;;;;;;;;;;;;;;8.42;80.33;99713.88;4972816;28;20086;-93
2024/02/19 09:13:55;;;;;;;0.80;0.80;;;;;;;8.36;79.96;99711.78;4969179;28;19961;-92
2024/02/19 09:16:21;;;;;;;0.70;0.70;;;;;;;8.39;79.97;99717.28;4955418;28;20211;-92
2024/02/19 09:18:46;;;;;;;0.70;0.70;;;;;;;8.40;79.25;99713.78;4966923;28;20035;-92
2024/02/19 09:21:12;;;;;;;0.70;0.70;;;;;;;8.54;79.73;99716.28;4956683;28;20046;-92
2024/02/19 09:23:39;;;;;;;0.70;0.70;;;;;;;8.60;78.64;99727.22;4969069;28;20456;-91
2024/02/19 09:26:12;;;;;;;0.80;0.80;;;;;;;8.74;78.47;99720.88;4954649;28;20041;-91
2024/02/19 09:28:41;;;;;;;0.80;0.80;;;;;;;8.89;77.59;99721.69;4952896;28;20150;-92
2024/02/19 09:31:07;;;;;;;0.80;0.80;;;;;;;8.91;77.46;99724.41;4961466;28;20477;-91
2024/02/19 09:33:32;;;;;;;0.70;0.70;;;;;;;9.02;76.62;99724.97;4994643;28;20102;-91
2024/02/19 09:35:58;;;;;;;0.75;0.75;;;;;;;9.16;76.92;99723.94;4960333;28;20169;-91
2024/02/19 09:38:23;;;;;;;0.70;0.70;;;;;;;9.30;75.83;99728.22;4969947;28;20038;-93
2024/02/19 09:40:49;;;;;;;0.60;0.60;;;;;;;9.21;76.10;99728.66;4962107;28;20042;-92
2024/02/19 09:43:20;;;;;;;0.70;0.70;;;;;;;8.87;75.54;99731.34;4976145;28;20094;-92
2024/02/19 09:45:49;;;;;;;0.60;0.60;;;;;;;8.79;75.37;99738.00;4981054;28;20039;-92
2024/02/19 09:48:17;;;;;;;0.60;0.60;;;;;;;8.72;76.10;99734.13;4976298;28;20035;-93
2024/02/19 09:50:47;;;;;;;0.70;0.70;;;;;;;8.42;77.25;99738.72;4989562;28;20113;-91
2024/02/19 09:53:19;;;;;;;0.65;0.65;;;;;;;8.27;78.09;99739.59;4986156;28;20082;-91
2024/02/19 09:55:45;;;;;;;0.70;0.70;;;;;;;8.11;78.08;99733.44;4975604;28;20042;-91
2024/02/19 09:58:10;;;;;;;0.70;0.70;;;;;;;8.19;78.36;99744.47;4979996;28;20035;-91
2024/02/19 10:00:36;;;;;;;0.70;0.70;;;;;;;8.20;77.28;99751.66;4982306;28;20047;-92
2024/02/19 10:03:02;;;;;;;0.70;0.70;;;;;;;8.13;78.12;99746.81;4961922;28;20145;-91
2024/02/19 10:05:28;;;;;;;0.80;0.80;;;;;;;8.08;78.67;99746.56;4959575;28;20023;-91
2024/02/19 10:07:58;;;;;;;0.70;0.70;;;;;;;8.05;77.94;99754.38;4994636;28;20031;-92
2024/02/19 10:10:24;;;;;;;0.70;0.70;;;;;;;7.92;79.35;99757.19;4980375;28;20039;-91
2024/02/19 10:12:50;;;;;;;0.70;0.70;;;;;;;7.82;80.18;99758.41;4991498;28;20050;-91
2024/02/19 10:15:15;;;;;;;0.70;0.70;;;;;;;7.70;81.57;99757.69;4972833;28;20054;-91
2024/02/19 10:17:42;;;;;;;0.70;0.70;;;;;;;7.75;79.75;99765.94;4999036;28;20046;-91
2024/02/19 10:20:11;;;;;;;0.70;0.70;;;;;;;7.80;79.82;99775.06;4970646;28;20074;-92
2024/02/19 10:22:38;;;;;;;0.70;0.70;;;;;;;7.93;78.04;99772.28;4990740;28;20043;-92
2024/02/19 10:25:07;;;;;;;0.77;0.77;;;;;;;7.96;77.11;99759.19;4997701;28;20038;-91
2024/02/19 10:27:37;;;;;;;0.80;0.80;;;;;;;8.13;75.47;99770.75;4961696;28;20055;-91
2024/02/19 10:30:07;;;;;;;0.80;0.80;;;;;;;8.30;75.25;99774.34;4945856;28;20145;-92
2024/02/19 10:32:32;;;;;;;0.80;0.80;;;;;;;8.46;74.48;99766.38;4965965;28;20078;-92
2024/02/19 10:34:59;;;;;;;0.70;0.70;;;;;;;8.61;73.58;99777.84;4971192;28;20451;-91
2024/02/19 10:37:27;;;;;;;0.80;0.80;;;;;;;8.76;74.29;99774.16;4978396;28;20039;-92
2024/02/19 10:39:52;;;;;;;0.70;0.70;;;;;;;8.70;74.43;99777.44;4975895;28;20039;-93
2024/02/19 10:42:18;;;;;;;0.70;0.70;;;;;;;8.63;75.38;99772.63;4965498;28;20045;-92
2024/02/19 10:44:44;;;;;;;0.75;0.75;;;;;;;8.55;75.23;99777.53;4997555;28;20042;-93
2024/02/19 10:47:09;;;;;;;0.65;0.65;;;;;;;8.53;76.64;99772.94;4981581;28;20038;-91
2024/02/19 10:49:35;;;;;;;0.70;0.70;;;;;;;8.42;77.13;99775.94;4973485;28;20070;-92
2024/02/19 10:52:04;;;;;;;0.80;0.80;;;;;;;8.51;77.22;99777.28;4982672;28;20039;-93
2024/02/19 10:54:31;;;;;;;0.70;0.70;;;;;;;8.51;76.85;99779.94;4977887;28;20033;-92
2024/02/19 10:57:07;;;;;;;0.70;0.70;;;;;;;8.46;77.57;99772.63;4971367;28;20043;-90
2024/02/19 10:59:34;;;;;;;0.77;0.77;;;;;;;8.54;77.83;99775.69;4963447;28;20027;-90
2024/02/19 11:02:08;;;;;;;0.73;0.73;;;;;;;8.56;78.39;99778.44;4963361;28;20035;-91
2024/02/19 11:04:34;;;;;;;0.70;0.70;;;;;;;8.73;78.04;99773.19;4968624;28;20105;-90
2024/02/19 11:07:03;;;;;;;0.70;0.70;;;;;;;8.91;76.88;99757.28;4987585;28;20035;-92
2024/02/19 11:09:32;;;;;;;0.65;0.65;;;;;;;9.11;75.76;99755.66;5004198;28;20034;-91
2024/02/19 11:12:05;;;;;;;0.70;0.70;;;;;;;9.28;74.47;99752.91;4987845;28;20043;-93
2024/02/19 11:14:33;;;;;;;0.70;0.70;;;;;;;9.54;72.35;99743.59;4978160;28;20102;-93
2024/02/19 11:17:01;;;;;;;0.80;0.80;;;;;;;9.84;71.01;99747.72;4969208;28;20039;-92
2024/02/19 11:19:39;;;;;;;0.70;0.70;;;;;;;9.89;70.09;99742.63;4976800;28;20082;-92
2024/02/19 11:22:11;;;;;;;0.70;0.70;;;;;;;9.98;69.79;99737.72;4980421;28;20055;-93
2024/02/19 11:24:39;;;;;;;0.70;0.70;;;;;;;9.92;69.05;99735.69;4996533;28;20039;-92
2024/02/19 11:27:05;;;;;;;;;;;;;;;10.09;68.23;99730.22;5194863;23;20094;-91
2024/02/19 11:29:36;;;;;;;0.70;0.70;;;;;;;10.61;67.56;99728.25;4964555;28;19942;-91
2024/02/19 11:32:10;;;;;;;0.60;0.60;;;;;;;10.75;66.05;99728.88;4960659;29;20042;-92
2024/02/19 11:34:37;;;;;;;0.70;0.70;;;;;;;10.57;65.84;99725.38;4976918;29;20055;-93
2024/02/19 11:37:13;;;;;;;0.70;0.70;;;;;;;10.53;66.07;99714.53;4975369;29;20035;-94
2024/02/19 11:39:42;;;;;;;0.60;0.60;;;;;;;10.45;66.66;99713.31;4971037;29;20040;-94
2024/02/19 11:42:10;;;;;;;0.60;0.60;;;;;;;10.55;66.49;99708.38;4952500;29;20053;-92
2024/02/19 11:44:37;;;;;;;0.70;0.70;;;;;;;10.72;66.28;99702.94;4966637;29;20069;-92
2024/02/19 11:47:07;;;;;;;0.68;0.68;;;;;;;10.86;66.42;99700.88;4943342;29;20050;-92
2024/02/19 11:49:35;;;;;;;0.70;0.70;;;;;;;10.75;64.96;99692.41;4976410;28;20132;-94
2024/02/19 11:52:02;;;;;;;0.65;0.65;;;;;;;10.49;64.96;99693.94;4944267;29;20041;-91
2024/02/19 11:54:33;;;;;;;0.70;0.70;;;;;;;10.87;64.01;99688.44;4962346;28;20042;-93
2024/02/19 11:57:07;;;;;;;0.70;0.70;;;;;;;11.07;60.53;99675.94;4972222;28;20023;-92
2024/02/19 11:59:35;;;;;;;0.60;0.60;;;;;;;11.54;62.88;99675.22;4975298;28;20070;-92
2024/02/19 12:02:04;;;;;;;0.70;0.70;;;;;;;11.12;61.87;99674.41;4927439;29;20028;-93
2024/02/19 12:04:36;;;;;;;0.60;0.60;;;;;;;11.22;61.99;99674.84;4928372;29;20043;-92
2024/02/19 12:07:10;;;;;;;0.60;0.60;;;;;;;10.99;61.91;99679.19;4968643;28;20040;-92
2024/02/19 12:09:35;;;;;;;0.70;0.70;;;;;;;11.05;63.17;99676.78;4959515;28;20060;-91
2024/02/19 12:12:02;;;;;;;0.70;0.70;;;;;;;11.04;61.96;99674.06;4976344;29;20087;-93
2024/02/19 12:14:28;;;;;;;0.60;0.60;;;;;;;11.01;62.59;99663.22;4955763;28;20047;-92
2024/02/19 12:16:58;;;;;;;0.60;0.60;;;;;;;10.95;62.54;99671.91;4970933;28;20043;-90
2024/02/19 12:19:26;;;;;;;0.70;0.70;;;;;;;10.85;63.31;99667.00;4966315;29;20031;-92
2024/02/19 12:21:52;;;;;;;0.60;0.60;;;;;;;10.67;64.18;99661.78;4973621;29;20043;-92
2024/02/19 12:24:32;;;;;;;0.63;0.63;;;;;;;10.60;63.57;99669.47;4958410;28;20537;-92
2024/02/19 12:26:58;;;;;;;0.60;0.60;;;;;;;10.69;63.85;99662.78;4971637;29;20078;-92
2024/02/19 12:29:25;;;;;;;0.70;0.70;;;;;;;10.43;64.81;99664.28;4938580;29;20035;-93
2024/02/19 12:31:51;;;;;;;0.70;0.70;;;;;;;10.43;65.61;99666.03;4944451;29;20046;-92
2024/02/19 12:34:16;;;;;;;0.63;0.63;;;;;;;10.31;65.87;99666.44;4962394;29;20055;-93
2024/02/19 12:36:42;;;;;;;0.60;0.60;;;;;;;10.20;65.62;99654.31;4923285;29;20055;-92
2024/02/19 12:39:10;;;;;;;0.70;0.70;;;;;;;10.08;66.63;99654.66;4959856;29;20034;-91
2024/02/19 12:41:35;;;;;;;0.70;0.70;;;;;;;10.18;66.94;99654.25;4965508;28;20035;-92
2024/02/19 12:44:01;;;;;;;0.65;0.65;;;;;;;10.00;66.25;99650.72;4949257;29;20027;-92
2024/02/19 12:46:26;;;;;;;0.60;0.60;;;;;;;10.32;65.50;99652.25;4964206;28;20043;-91
2024/02/19 12:48:52;;;;;;;0.60;0.60;;;;;;;10.30;65.25;99658.31;4959613;28;20170;-92
2024/02/19 12:51:18;;;;;;;0.60;0.60;;;;;;;10.47;64.89;99650.25;4946544;28;20035;-90
2024/02/19 12:53:43;;;;;;;0.70;0.70;;;;;;;10.34;64.97;99638.97;4953879;29;20070;-92
2024/02/19 12:56:09;;;;;;;0.70;0.70;;;;;;;10.51;64.42;99629.94;4949282;29;20111;-92
2024/02/19 12:58:35;;;;;;;0.70;0.70;;;;;;;10.66;63.51;99633.28;4939519;29;20095;-92
2024/02/19 13:01:00;;;;;;;0.70;0.70;;;;;;;10.96;62.51;99625.66;4945030;29;20058;-92
2024/02/19 13:03:26;;;;;;;0.60;0.60;;;;;;;11.08;62.09;99625.28;4964684;28;20058;-91
2024/02/19 13:05:52;;;;;;;0.60;0.60;;;;;;;11.04;60.67;99615.31;4974199;29;20035;-91
2024/02/19 13:08:17;;;;;;;0.70;0.70;;;;;;;11.20;60.80;99607.06;4956633;29;20043;-90
2024/02/19 13:10:43;;;;;;;0.60;0.60;;;;;;;11.62;59.84;99600.69;4961963;29;20043;-91
2024/02/19 13:13:16;;;;;;;0.60;0.60;;;;;;;11.62;59.55;99606.03;4965142;29;20027;-89
2024/02/19 13:15:43;;;;;;;0.60;0.60;;;;;;;11.62;60.31;99608.72;4956834;29;20065;-92
2024/02/19 13:18:10;;;;;;;0.70;0.70;;;;;;;11.66;59.97;99599.97;4958571;29;20082;-92
2024/02/19 13:20:39;;;;;;;0.60;0.60;;;;;;;11.40;60.57;99610.56;4960267;29;20086;-90
2024/02/19 13:23:04;;;;;;;0.60;0.60;;;;;;;10.90;61.31;99616.50;4976280;28;20031;-90
2024/02/19 13:25:30;;;;;;;0.70;0.70;;;;;;;10.98;61.48;99615.97;4976471;29;20054;-91
2024/02/19 13:27:56;;;;;;;0.60;0.60;;;;;;;11.08;60.87;99605.66;4970848;28;20051;-90
2024/02/19 13:30:23;;;;;;;0.60;0.60;;;;;;;11.08;60.36;99606.56;4976914;28;20043;-91
2024/02/19 13:32:48;;;;;;;0.70;0.70;;;;;;;10.91;60.82;99605.88;4957197;29;20039;-91
2024/02/19 13:35:14;;;;;;;0.70;0.70;;;;;;;10.90;59.60;99605.81;4967525;29;20102;-91
2024/02/19 13:37:41;;;;;;;0.70;0.70;;;;;;;11.01;60.48;99605.41;4949101;28;20055;-91
2024/02/19 13:40:11;;;;;;;0.70;0.70;;;;;;;10.97;59.72;99595.47;4969042;29;20089;-91
2024/02/19 13:42:40;;;;;;;0.70;0.70;;;;;;;10.98;58.83;99594.59;4955213;29;20086;-91
2024/02/19 13:45:09;;;;;;;0.63;0.63;;;;;;;11.14;59.03;99580.13;4970920;28;20049;-91
2024/02/19 13:47:44;;;;;;;0.70;0.70;;;;;;;11.35;59.22;99588.06;4965507;29;20023;-90
2024/02/19 13:50:12;;;;;;;0.60;0.60;;;;;;;11.49;58.73;99584.16;4961380;29;20067;-91
2024/02/19 13:52:40;;;;;;;0.60;0.60;;;;;;;11.60;59.30;99586.38;4951400;28;20035;-92
2024/02/19 13:55:06;;;;;;;0.70;0.70;;;;;;;11.25;59.30;99588.56;4964378;28;20055;-90
2024/02/19 13:57:31;;;;;;;0.70;0.70;;;;;;;10.99;60.45;99596.44;4922738;29;20051;-91
2024/02/19 13:59:59;;;;;;;0.55;0.55;;;;;;;10.83;61.22;99595.72;4928627;29;20047;-90